Time;durP1;ratioP1;P1;durP2;ratioP2;P2;SDS_P1;SDS_P2;PMS_P1;PMS_P2;Temp;Humidity;BMP_temperature;BMP_pressure;BME280_temperature;BME280_humidity;BME280_pressure;Samples;Min_cycle;Max_cycle;Signal;HPM_P1;HPM_P2
2023/09/22 00:01:12;;;;;;;6.65;3.70;;;22.30;65.80;;;;;;5020781;28;20025;-65
2023/09/22 00:03:37;;;;;;;4.82;3.40;;;22.20;65.70;;;;;;5023885;28;20026;-66
2023/09/22 00:06:03;;;;;;;3.95;3.50;;;22.30;65.80;;;;;;5024511;28;20108;-65
2023/09/22 00:08:29;;;;;;;4.10;3.60;;;22.30;65.80;;;;;;5022655;28;20038;-64
2023/09/22 00:10:54;;;;;;;3.78;3.38;;;22.30;65.50;;;;;;5024446;28;20041;-64
2023/09/22 00:13:20;;;;;;;3.78;3.38;;;22.30;65.20;;;;;;5023049;28;20373;-66
2023/09/22 00:15:46;;;;;;;4.25;3.30;;;22.30;65.10;;;;;;5005702;28;20030;-65
2023/09/22 00:18:11;;;;;;;3.30;2.80;;;22.30;65.30;;;;;;5021369;28;20112;-66
2023/09/22 00:20:37;;;;;;;3.80;3.20;;;22.30;65.20;;;;;;5022554;28;20278;-66
2023/09/22 00:23:03;;;;;;;2.80;2.60;;;22.30;65.30;;;;;;5007765;28;20026;-66
2023/09/22 00:25:28;;;;;;;3.40;3.10;;;22.30;65.10;;;;;;5020001;28;20070;-65
2023/09/22 00:27:54;;;;;;;2.67;2.47;;;22.20;64.90;;;;;;5019695;28;20038;-63
2023/09/22 00:30:20;;;;;;;4.97;3.50;;;22.20;65.20;;;;;;5019652;28;20109;-65
2023/09/22 00:32:45;;;;;;;2.70;2.50;;;22.30;65.20;;;;;;5021142;28;20207;-66
2023/09/22 00:35:12;;;;;;;3.40;3.10;;;22.30;65.40;;;;;;5023653;28;20029;-65
2023/09/22 00:37:40;;;;;;;3.25;2.95;;;22.30;65.30;;;;;;5022087;28;20047;-66
2023/09/22 00:40:08;;;;;;;3.85;2.83;;;22.30;65.30;;;;;;5019129;28;20595;-66
2023/09/22 00:42:34;;;;;;;3.70;2.85;;;22.30;65.40;;;;;;5023695;28;20049;-65
2023/09/22 00:44:59;;;;;;;3.38;3.08;;;22.30;65.50;;;;;;5021939;28;20029;-65
2023/09/22 00:47:25;;;;;;;3.53;3.13;;;22.30;65.70;;;;;;5022128;28;20555;-66
2023/09/22 00:49:51;;;;;;;2.80;2.60;;;22.20;65.50;;;;;;5019494;28;20120;-65
2023/09/22 00:52:21;;;;;;;3.00;2.60;;;22.30;65.40;;;;;;5020824;28;20042;-65
2023/09/22 00:54:49;;;;;;;3.15;2.83;;;22.30;65.30;;;;;;5016948;28;20025;-63
2023/09/22 00:57:16;;;;;;;2.97;2.65;;;22.30;65.20;;;;;;5019132;28;20025;-60
2023/09/22 00:59:42;;;;;;;3.65;2.50;;;22.20;65.20;;;;;;5017920;28;20201;-65
2023/09/22 01:02:09;;;;;;;2.65;2.42;;;22.20;65.30;;;;;;5022887;28;20088;-66
2023/09/22 01:04:35;;;;;;;2.47;2.28;;;22.30;65.20;;;;;;5018079;28;20026;-65
2023/09/22 01:07:00;;;;;;;2.42;2.22;;;22.30;64.90;;;;;;5021018;28;20079;-66
2023/09/22 01:09:26;;;;;;;2.90;2.60;;;22.30;65.20;;;;;;5018082;28;20056;-66
2023/09/22 01:11:51;;;;;;;2.53;2.13;;;22.30;65.40;;;;;;5021525;28;20340;-59
2023/09/22 01:14:17;;;;;;;2.78;1.88;;;22.30;65.40;;;;;;5019559;28;20082;-65
2023/09/22 01:16:42;;;;;;;2.97;2.08;;;22.30;65.10;;;;;;5022699;28;20033;-66
2023/09/22 01:19:16;;;;;;;2.33;1.83;;;22.30;65.00;;;;;;5017984;28;20030;-66
2023/09/22 01:21:46;;;;;;;1.92;1.83;;;22.30;65.40;;;;;;5018621;28;20049;-66
2023/09/22 01:24:13;;;;;;;3.08;2.67;;;22.30;65.20;;;;;;5015561;28;20038;-65
2023/09/22 01:26:39;;;;;;;3.15;1.95;;;22.30;65.60;;;;;;5017773;28;20602;-67
2023/09/22 01:29:06;;;;;;;2.08;1.90;;;22.30;65.50;;;;;;5022383;28;20488;-62
2023/09/22 01:31:33;;;;;;;3.35;2.28;;;22.30;65.70;;;;;;5022234;28;20547;-62
2023/09/22 01:34:00;;;;;;;2.92;1.98;;;22.30;65.60;;;;;;5022207;28;20037;-66
2023/09/22 01:36:25;;;;;;;2.38;1.70;;;22.30;65.50;;;;;;5019682;28;20041;-61
2023/09/22 01:38:51;;;;;;;3.08;2.03;;;22.30;65.40;;;;;;5018665;28;20284;-66
2023/09/22 01:41:17;;;;;;;1.90;1.70;;;22.30;65.40;;;;;;5019492;28;20777;-65
2023/09/22 01:43:42;;;;;;;1.92;1.40;;;22.30;65.40;;;;;;5016642;28;20044;-65
2023/09/22 01:46:07;;;;;;;2.67;1.80;;;22.30;65.60;;;;;;5021724;28;20125;-66
2023/09/22 01:48:33;;;;;;;3.08;1.65;;;22.30;65.40;;;;;;5001717;28;20037;-63
2023/09/22 01:51:03;;;;;;;1.98;1.50;;;22.30;65.50;;;;;;5020040;28;20034;-64
2023/09/22 01:53:28;;;;;;;2.00;1.67;;;22.30;65.60;;;;;;5021906;28;20038;-64
2023/09/22 01:55:54;;;;;;;1.42;1.33;;;22.30;65.40;;;;;;5022891;28;20103;-64
2023/09/22 01:58:20;;;;;;;1.17;0.90;;;22.30;65.40;;;;;;5022829;28;20029;-64
2023/09/22 02:00:46;;;;;;;1.58;1.48;;;22.30;64.70;;;;;;5018269;28;20108;-66
2023/09/22 02:03:11;;;;;;;1.65;1.33;;;22.20;65.60;;;;;;5006889;28;20113;-62
2023/09/22 02:05:37;;;;;;;1.67;1.13;;;22.20;65.50;;;;;;5003588;28;20050;-66
2023/09/22 02:08:02;;;;;;;1.88;1.65;;;22.20;65.60;;;;;;5020952;28;20022;-63
2023/09/22 02:10:28;;;;;;;1.35;1.20;;;22.20;65.70;;;;;;5019819;28;20026;-65
2023/09/22 02:12:54;;;;;;;3.30;1.17;;;22.20;65.80;;;;;;5020430;28;20487;-61
2023/09/22 02:15:19;;;;;;;2.17;1.00;;;22.20;65.60;;;;;;5004014;28;20520;-65
2023/09/22 02:17:48;;;;;;;2.78;1.02;;;22.20;65.60;;;;;;5018156;28;20029;-65
2023/09/22 02:20:23;;;;;;;1.27;0.80;;;22.20;65.60;;;;;;5017843;28;20052;-66
2023/09/22 02:22:58;;;;;;;2.10;0.85;;;22.20;65.60;;;;;;5019596;28;20484;-62
2023/09/22 02:25:24;;;;;;;0.95;0.70;;;22.20;65.50;;;;;;5017125;28;20030;-66
2023/09/22 02:27:52;;;;;;;1.00;0.90;;;22.20;65.50;;;;;;5018616;28;20040;-64
2023/09/22 02:30:18;;;;;;;0.80;0.70;;;22.20;65.80;;;;;;5021599;28;20476;-66
2023/09/22 02:32:49;;;;;;;2.20;0.70;;;22.20;65.80;;;;;;5017703;28;20115;-65
2023/09/22 02:35:20;;;;;;;0.80;0.80;;;22.20;65.60;;;;;;5018687;28;20029;-66
2023/09/22 02:37:46;;;;;;;2.53;0.68;;;22.20;65.50;;;;;;5019250;28;20181;-65
2023/09/22 02:40:17;;;;;;;0.70;0.60;;;22.20;65.60;;;;;;5018659;28;20567;-64
2023/09/22 02:42:43;;;;;;;0.82;0.50;;;22.20;65.70;;;;;;5016696;28;20029;-65
2023/09/22 02:45:09;;;;;;;2.90;0.60;;;22.20;65.40;;;;;;5019627;28;20412;-63
2023/09/22 02:47:39;;;;;;;1.00;0.68;;;22.20;65.40;;;;;;5019830;28;20021;-66
2023/09/22 02:50:05;;;;;;;0.95;0.60;;;22.20;65.80;;;;;;5019528;28;20041;-66
2023/09/22 02:52:32;;;;;;;0.82;0.50;;;22.20;65.60;;;;;;5020515;28;20041;-65
2023/09/22 02:54:58;;;;;;;1.05;0.50;;;22.20;66.00;;;;;;5018023;28;20475;-66
2023/09/22 02:57:23;;;;;;;1.45;0.50;;;22.20;65.70;;;;;;5022303;28;20119;-66
2023/09/22 02:59:55;;;;;;;0.47;0.40;;;22.20;65.70;;;;;;5017506;28;20315;-66
2023/09/22 03:02:21;;;;;;;0.60;0.43;;;22.20;65.40;;;;;;5016595;28;20037;-64
2023/09/22 03:04:47;;;;;;;0.75;0.40;;;22.20;65.40;;;;;;5017857;28;20185;-66
2023/09/22 03:07:12;;;;;;;0.82;0.38;;;22.20;65.60;;;;;;5014110;28;20048;-65
2023/09/22 03:09:38;;;;;;;0.80;0.50;;;22.10;65.30;;;;;;5017309;28;20026;-67
2023/09/22 03:12:04;;;;;;;0.68;0.57;;;22.10;65.60;;;;;;5015429;28;20036;-66
2023/09/22 03:14:30;;;;;;;0.90;0.60;;;22.20;65.60;;;;;;5014810;28;20026;-66
2023/09/22 03:16:57;;;;;;;0.50;0.40;;;22.20;65.40;;;;;;5017977;28;20033;-66
2023/09/22 03:19:23;;;;;;;0.35;0.35;;;22.20;65.60;;;;;;5017835;28;20021;-66
2023/09/22 03:21:48;;;;;;;0.68;0.40;;;22.20;65.70;;;;;;5015329;28;20071;-66
2023/09/22 03:24:14;;;;;;;0.30;0.25;;;22.20;65.60;;;;;;5018354;28;20029;-66
2023/09/22 03:26:39;;;;;;;0.35;0.30;;;22.10;65.60;;;;;;5018414;28;20072;-66
2023/09/22 03:29:05;;;;;;;0.70;0.47;;;22.20;65.60;;;;;;5018953;28;20107;-62
2023/09/22 03:31:30;;;;;;;0.45;0.40;;;22.20;65.70;;;;;;5014014;28;20123;-63
2023/09/22 03:33:56;;;;;;;0.40;0.30;;;22.20;65.80;;;;;;5016908;28;20030;-65
2023/09/22 03:36:21;;;;;;;0.60;0.40;;;22.20;65.70;;;;;;5018666;28;20544;-65
2023/09/22 03:38:48;;;;;;;0.55;0.38;;;22.20;65.70;;;;;;5019772;28;20026;-65
2023/09/22 03:41:15;;;;;;;0.95;0.50;;;22.20;65.80;;;;;;5014646;28;20492;-65
2023/09/22 03:43:43;;;;;;;0.35;0.30;;;22.20;65.80;;;;;;5019967;28;20289;-65
2023/09/22 03:46:09;;;;;;;0.63;0.35;;;22.10;65.50;;;;;;5020041;28;20049;-61
2023/09/22 03:48:34;;;;;;;0.30;0.20;;;22.20;65.70;;;;;;5018129;28;20060;-65
2023/09/22 03:51:00;;;;;;;0.88;0.50;;;22.20;65.80;;;;;;5016382;28;20116;-65
2023/09/22 03:53:27;;;;;;;0.32;0.30;;;22.10;65.60;;;;;;5018646;28;20034;-65
2023/09/22 03:55:53;;;;;;;2.13;0.50;;;22.10;65.80;;;;;;5018090;28;20346;-62
2023/09/22 03:58:20;;;;;;;0.38;0.25;;;22.10;65.80;;;;;;5017194;28;20030;-65
2023/09/22 04:00:46;;;;;;;0.75;0.28;;;22.10;65.70;;;;;;4995796;28;20038;-66
2023/09/22 04:03:13;;;;;;;1.23;0.40;;;22.10;65.90;;;;;;5018358;28;20026;-66
2023/09/22 04:05:39;;;;;;;1.35;0.40;;;22.10;65.80;;;;;;5013977;28;20110;-65
2023/09/22 04:08:05;;;;;;;0.52;0.32;;;22.10;65.80;;;;;;5018910;28;20116;-65
2023/09/22 04:10:34;;;;;;;0.75;0.35;;;22.10;65.80;;;;;;5018536;28;20029;-65
2023/09/22 04:13:00;;;;;;;1.08;0.32;;;22.10;65.80;;;;;;5016622;28;20767;-65
2023/09/22 04:15:26;;;;;;;1.27;0.50;;;22.10;66.00;;;;;;5023891;28;20034;-65
2023/09/22 04:17:51;;;;;;;0.47;0.35;;;22.10;66.00;;;;;;5017849;28;20120;-65
2023/09/22 04:20:27;;;;;;;0.65;0.40;;;22.10;66.00;;;;;;5022037;28;20171;-66
2023/09/22 04:22:53;;;;;;;;;;;22.10;66.00;;;;;;5016728;28;20500;-64
2023/09/22 04:25:29;;;;;;;0.57;0.20;;;22.10;66.00;;;;;;5021942;28;19988;-65
2023/09/22 04:28:07;;;;;;;1.00;0.40;;;22.10;66.00;;;;;;5017991;28;20116;-65
2023/09/22 04:30:36;;;;;;;0.50;0.30;;;22.10;65.80;;;;;;5017858;28;20037;-63
2023/09/22 04:33:02;;;;;;;0.55;0.30;;;22.10;65.90;;;;;;5017952;28;20088;-66
2023/09/22 04:35:32;;;;;;;0.70;0.25;;;22.10;66.00;;;;;;5018923;28;21711;-66
2023/09/22 04:37:58;;;;;;;0.77;0.40;;;22.10;66.00;;;;;;5018117;28;20434;-63
2023/09/22 04:40:24;;;;;;;0.50;0.30;;;22.10;66.60;;;;;;5021807;28;20034;-66
2023/09/22 04:42:53;;;;;;;0.47;0.20;;;22.10;65.90;;;;;;5020972;28;20026;-66
2023/09/22 04:45:19;;;;;;;0.55;0.20;;;22.10;65.90;;;;;;5020869;28;21059;-66
2023/09/22 04:47:49;;;;;;;0.43;0.40;;;22.10;65.90;;;;;;5019883;28;20065;-66
2023/09/22 04:50:17;;;;;;;1.42;0.30;;;22.10;65.70;;;;;;5020261;28;20384;-62
2023/09/22 04:52:47;;;;;;;0.75;0.30;;;22.10;65.80;;;;;;5018452;28;20034;-63
2023/09/22 04:55:13;;;;;;;0.50;0.30;;;22.10;65.50;;;;;;5020497;28;20045;-62
2023/09/22 04:57:38;;;;;;;0.40;0.22;;;22.10;66.60;;;;;;5018023;28;20101;-65
2023/09/22 05:00:13;;;;;;;0.88;0.40;;;22.00;66.10;;;;;;5009446;28;20053;-67
2023/09/22 05:02:38;;;;;;;0.85;0.20;;;22.00;65.20;;;;;;5018662;28;20059;-62
2023/09/22 05:05:04;;;;;;;2.15;0.40;;;22.00;66.00;;;;;;5017364;28;20496;-65
2023/09/22 05:07:30;;;;;;;0.82;0.40;;;22.00;66.00;;;;;;5021785;28;20052;-64
2023/09/22 05:09:55;;;;;;;1.38;0.40;;;22.00;65.60;;;;;;5021743;28;20056;-64
2023/09/22 05:12:21;;;;;;;0.30;0.30;;;22.00;66.20;;;;;;5019639;28;20646;-66
2023/09/22 05:14:47;;;;;;;3.28;1.05;;;22.00;66.10;;;;;;5003465;28;20029;-66
2023/09/22 05:17:14;;;;;;;1.40;0.43;;;22.00;66.20;;;;;;5019407;28;20106;-65
2023/09/22 05:19:39;;;;;;;0.82;0.20;;;22.00;66.50;;;;;;5020593;28;20267;-64
2023/09/22 05:22:05;;;;;;;1.67;0.80;;;22.00;66.20;;;;;;5018293;28;20522;-65
2023/09/22 05:24:31;;;;;;;0.50;0.30;;;22.00;66.30;;;;;;5016697;28;20091;-65
2023/09/22 05:26:56;;;;;;;0.75;0.30;;;22.00;66.40;;;;;;5001727;28;20037;-65
2023/09/22 05:29:22;;;;;;;1.85;0.40;;;22.00;66.20;;;;;;5018753;28;20493;-66
2023/09/22 05:31:48;;;;;;;1.80;0.38;;;22.10;66.30;;;;;;5018638;28;20044;-68
2023/09/22 05:34:14;;;;;;;3.28;0.50;;;22.10;66.30;;;;;;5023323;28;20029;-63
2023/09/22 05:36:41;;;;;;;2.92;0.38;;;22.10;66.50;;;;;;5025582;28;20033;-66
2023/09/22 05:39:08;;;;;;;1.90;0.40;;;22.10;66.40;;;;;;5019522;28;20033;-66
2023/09/22 05:41:34;;;;;;;1.17;0.40;;;22.10;66.50;;;;;;5021231;28;20333;-65
2023/09/22 05:44:00;;;;;;;2.13;0.45;;;22.10;66.50;;;;;;5020214;28;20037;-65
2023/09/22 05:46:26;;;;;;;4.93;0.70;;;22.10;66.50;;;;;;5020507;28;20026;-66
2023/09/22 05:48:52;;;;;;;10.05;5.60;;;22.10;66.70;;;;;;5017735;28;20036;-66
2023/09/22 05:51:18;;;;;;;14.07;7.22;;;22.10;66.70;;;;;;5016920;28;20088;-65
2023/09/22 05:53:44;;;;;;;13.15;6.45;;;22.10;66.70;;;;;;5018024;28;20045;-67
2023/09/22 05:56:10;;;;;;;7.63;5.05;;;22.10;66.70;;;;;;5021208;28;20038;-65
2023/09/22 05:58:39;;;;;;;6.72;4.43;;;22.20;66.90;;;;;;5019162;28;20054;-66
2023/09/22 06:01:09;;;;;;;10.13;4.57;;;22.10;67.10;;;;;;5023112;28;20061;-66
2023/09/22 06:03:37;;;;;;;7.65;4.25;;;22.20;67.00;;;;;;5019773;28;20025;-67
2023/09/22 06:06:08;;;;;;;7.80;4.03;;;22.20;66.90;;;;;;5018912;28;20040;-67
2023/09/22 06:08:36;;;;;;;7.40;3.72;;;22.20;67.10;;;;;;5014900;28;20030;-66
2023/09/22 06:11:01;;;;;;;7.85;3.85;;;22.20;67.20;;;;;;5016734;28;20038;-67
2023/09/22 06:13:27;;;;;;;5.95;3.42;;;22.20;67.30;;;;;;5019405;28;20380;-67
2023/09/22 06:15:53;;;;;;;4.38;3.03;;;22.20;67.30;;;;;;5019403;28;20060;-67
2023/09/22 06:18:22;;;;;;;6.15;3.55;;;22.20;67.40;;;;;;5014044;28;20033;-66
2023/09/22 06:20:48;;;;;;;5.90;3.05;;;22.20;67.50;;;;;;5018843;28;20037;-65
2023/09/22 06:23:13;;;;;;;8.48;2.75;;;22.20;67.70;;;;;;5015049;28;20520;-67
2023/09/22 06:25:39;;;;;;;3.50;2.47;;;22.20;67.60;;;;;;4985042;28;20096;-66
2023/09/22 06:28:08;;;;;;;6.80;2.67;;;22.20;67.60;;;;;;5016017;28;20076;-66
2023/09/22 06:30:34;;;;;;;13.70;4.72;;;22.20;67.60;;;;;;5021189;28;20363;-67
2023/09/22 06:33:01;;;;;;;11.02;4.95;;;22.20;67.80;;;;;;5014655;28;20556;-67
2023/09/22 06:35:26;;;;;;;12.95;4.78;;;22.20;67.80;;;;;;5017831;28;20034;-66
2023/09/22 06:37:53;;;;;;;11.50;4.60;;;22.20;67.80;;;;;;5016728;28;20384;-66
2023/09/22 06:40:19;;;;;;;9.35;4.18;;;22.20;68.00;;;;;;5019537;28;20026;-66
2023/09/22 06:42:45;;;;;;;13.05;4.20;;;22.20;68.30;;;;;;5016090;28;20055;-64
2023/09/22 06:45:16;;;;;;;10.10;3.90;;;22.20;67.90;;;;;;5017651;28;20032;-64
2023/09/22 06:47:42;;;;;;;6.13;3.13;;;22.20;68.20;;;;;;5016612;28;20068;-66
2023/09/22 06:50:08;;;;;;;6.78;3.47;;;22.20;68.00;;;;;;5018766;28;20695;-66
2023/09/22 06:52:34;;;;;;;7.28;3.53;;;22.20;68.10;;;;;;5016053;28;20038;-66
2023/09/22 06:55:00;;;;;;;7.47;3.10;;;22.20;68.00;;;;;;5023269;28;20037;-68
2023/09/22 06:57:26;;;;;;;9.65;2.83;;;22.20;68.00;;;;;;5018572;28;20072;-67
2023/09/22 06:59:52;;;;;;;5.55;2.17;;;22.20;68.00;;;;;;5018815;28;20454;-66
2023/09/22 07:02:18;;;;;;;5.70;2.67;;;22.30;68.10;;;;;;5016237;28;20605;-66
2023/09/22 07:04:44;;;;;;;4.53;1.75;;;22.20;68.00;;;;;;5015407;28;20065;-65
2023/09/22 07:07:11;;;;;;;4.57;1.58;;;22.20;68.00;;;;;;4999713;28;20076;-66
2023/09/22 07:09:37;;;;;;;6.75;1.75;;;22.20;67.80;;;;;;5019588;28;20037;-65
2023/09/22 07:12:04;;;;;;;5.90;0.93;;;22.20;68.40;;;;;;5018033;28;20032;-65
2023/09/22 07:14:32;;;;;;;3.08;0.98;;;22.10;68.40;;;;;;5017868;28;20116;-65
2023/09/22 07:16:57;;;;;;;3.28;0.98;;;22.10;68.20;;;;;;5018317;28;20030;-65
2023/09/22 07:19:23;;;;;;;0.82;0.70;;;22.10;68.10;;;;;;5020891;28;20075;-66
2023/09/22 07:21:49;;;;;;;1.73;0.70;;;22.00;68.00;;;;;;5003771;28;20052;-66
2023/09/22 07:24:15;;;;;;;3.08;0.80;;;22.10;68.00;;;;;;5019184;28;20033;-65
2023/09/22 07:26:41;;;;;;;1.00;0.68;;;22.10;67.90;;;;;;5017494;28;20103;-65
2023/09/22 07:29:06;;;;;;;1.63;0.60;;;22.00;67.80;;;;;;5020891;28;20499;-65
2023/09/22 07:31:32;;;;;;;2.35;0.68;;;22.00;67.80;;;;;;5022730;28;20115;-66
2023/09/22 07:33:58;;;;;;;1.15;0.50;;;22.00;67.60;;;;;;5017718;28;20040;-66
2023/09/22 07:36:26;;;;;;;1.70;0.50;;;21.90;67.40;;;;;;5019638;28;20451;-66
2023/09/22 07:38:55;;;;;;;1.05;0.50;;;22.00;67.40;;;;;;5014742;28;20026;-66
2023/09/22 07:41:20;;;;;;;1.58;0.63;;;22.00;67.30;;;;;;5013940;28;20056;-66
2023/09/22 07:43:46;;;;;;;1.00;0.65;;;22.00;67.10;;;;;;4999290;28;20033;-66
2023/09/22 07:46:11;;;;;;;1.58;0.55;;;22.00;67.20;;;;;;5020539;28;20045;-66
2023/09/22 07:48:37;;;;;;;1.02;0.60;;;22.10;67.00;;;;;;5020381;28;20161;-66
2023/09/22 07:51:03;;;;;;;1.63;0.80;;;22.00;66.60;;;;;;5021493;28;20417;-66
2023/09/22 07:53:30;;;;;;;2.00;0.52;;;22.10;66.70;;;;;;5021670;28;20631;-66
2023/09/22 07:55:59;;;;;;;1.42;0.90;;;22.10;66.70;;;;;;5022665;28;20117;-66
2023/09/22 07:58:26;;;;;;;2.55;0.60;;;22.10;66.50;;;;;;5024002;28;20116;-66
2023/09/22 08:00:52;;;;;;;0.90;0.40;;;22.10;66.60;;;;;;5028330;28;20033;-66
2023/09/22 08:03:18;;;;;;;0.82;0.50;;;22.10;66.50;;;;;;5021312;28;20488;-66
2023/09/22 08:05:45;;;;;;;1.52;0.50;;;22.10;66.50;;;;;;5025750;28;20057;-65
2023/09/22 08:08:11;;;;;;;2.22;0.65;;;22.10;66.60;;;;;;5022706;28;20108;-66
2023/09/22 08:10:40;;;;;;;1.15;0.50;;;22.00;66.50;;;;;;5021436;28;20081;-66
2023/09/22 08:13:07;;;;;;;0.95;0.65;;;22.00;67.30;;;;;;5032373;22;20192;-80
2023/09/22 08:15:34;;;;;;;1.20;0.50;;;22.10;66.60;;;;;;5015681;23;20045;-60
2023/09/22 08:18:02;;;;;;;2.55;0.60;;;22.00;66.10;;;;;;5001296;28;20580;-60
2023/09/22 08:20:28;;;;;;;0.93;0.70;;;22.00;66.50;;;;;;5000036;28;20034;-59
2023/09/22 08:22:53;;;;;;;1.30;0.40;;;22.00;66.80;;;;;;5000358;28;20038;-61
2023/09/22 08:25:20;;;;;;;1.08;0.47;;;22.00;66.50;;;;;;4983809;28;20658;-58
2023/09/22 08:27:48;;;;;;;1.30;0.93;;;22.00;66.60;;;;;;5000264;28;20473;-59
2023/09/22 08:30:13;;;;;;;1.05;0.50;;;22.10;66.70;;;;;;5000507;28;20085;-58
2023/09/22 08:32:41;;;;;;;2.50;0.70;;;22.10;66.30;;;;;;4999746;28;20528;-58
2023/09/22 08:35:12;;;;;;;1.52;0.50;;;22.10;66.50;;;;;;4997510;28;20039;-58
2023/09/22 08:37:42;;;;;;;0.95;0.50;;;22.00;66.50;;;;;;4998395;28;20049;-60
2023/09/22 08:40:15;;;;;;;1.20;0.45;;;22.10;66.50;;;;;;4996592;28;20041;-60
2023/09/22 08:42:45;;;;;;;1.13;0.60;;;22.10;66.30;;;;;;5000381;28;20036;-59
2023/09/22 08:45:12;;;;;;;1.15;0.57;;;22.00;66.40;;;;;;4988169;28;20030;-57
2023/09/22 08:47:39;;;;;;;1.52;0.50;;;22.00;66.50;;;;;;4995445;28;20413;-59
2023/09/22 08:50:13;;;;;;;1.10;0.57;;;22.00;66.50;;;;;;4976573;28;20037;-59
2023/09/22 08:52:39;;;;;;;1.48;0.65;;;22.00;66.60;;;;;;4978154;28;20058;-59
2023/09/22 08:55:08;;;;;;;1.40;0.52;;;22.00;66.70;;;;;;4997174;28;20037;-59
2023/09/22 08:57:34;;;;;;;1.65;0.50;;;22.00;67.10;;;;;;4999137;28;20030;-61
2023/09/22 09:00:00;;;;;;;0.70;0.43;;;22.00;67.00;;;;;;5001645;28;20037;-61
2023/09/22 09:02:26;;;;;;;0.70;0.47;;;22.00;66.60;;;;;;5000116;28;20042;-62
2023/09/22 09:04:51;;;;;;;0.73;0.40;;;22.00;67.00;;;;;;4999205;28;20520;-61
2023/09/22 09:07:18;;;;;;;0.82;0.47;;;22.10;66.70;;;;;;4997509;28;20026;-61
2023/09/22 09:09:47;;;;;;;2.35;0.50;;;22.00;66.80;;;;;;5000062;28;20570;-61
2023/09/22 09:12:13;;;;;;;1.92;0.57;;;22.00;66.50;;;;;;4998569;28;20029;-59
2023/09/22 09:14:43;;;;;;;1.45;0.50;;;22.00;66.60;;;;;;4999410;28;20034;-58
2023/09/22 09:17:17;;;;;;;1.38;0.50;;;22.00;66.70;;;;;;4997814;28;20030;-61
2023/09/22 09:19:48;;;;;;;1.10;0.40;;;22.00;66.60;;;;;;5000353;28;21039;-61
2023/09/22 09:22:14;;;;;;;1.02;0.45;;;22.10;66.70;;;;;;4985920;28;20532;-59
2023/09/22 09:24:41;;;;;;;1.90;0.68;;;22.00;66.50;;;;;;5005346;28;20138;-61
2023/09/22 09:27:21;;;;;;;0.82;0.70;;;22.00;66.50;;;;;;4999258;28;20113;-61
2023/09/22 09:29:50;;;;;;;1.10;0.50;;;22.10;66.60;;;;;;4999592;28;20108;-61
2023/09/22 09:32:27;;;;;;;0.88;0.60;;;22.10;66.60;;;;;;5001550;28;20036;-61
2023/09/22 09:34:53;;;;;;;1.10;0.75;;;22.10;66.60;;;;;;4979204;28;20459;-61
2023/09/22 09:37:19;;;;;;;1.13;0.63;;;22.10;66.50;;;;;;4997091;28;20036;-61
2023/09/22 09:39:52;;;;;;;1.13;0.63;;;22.10;66.50;;;;;;4998620;28;20026;-61
2023/09/22 09:42:22;;;;;;;1.17;0.60;;;22.00;66.40;;;;;;5001286;28;20030;-61
2023/09/22 09:44:52;;;;;;;1.77;0.70;;;22.10;66.50;;;;;;4993917;28;20023;-61
2023/09/22 09:47:26;;;;;;;0.80;0.52;;;22.10;66.40;;;;;;4981059;28;20113;-61
2023/09/22 09:49:54;;;;;;;0.75;0.60;;;22.10;66.50;;;;;;5000539;28;20033;-62
2023/09/22 09:52:35;;;;;;;1.90;0.50;;;22.10;66.50;;;;;;4996904;28;20416;-61
2023/09/22 09:57:52;;;;;;;2.58;0.80;;;22.10;66.50;;;;;;4990665;28;20078;-54
2023/09/22 10:00:20;;;;;;;1.88;0.85;;;22.10;66.30;;;;;;4994560;28;20461;-58
2023/09/22 10:02:48;;;;;;;1.48;0.70;;;22.10;66.60;;;;;;4992700;28;20034;-52
2023/09/22 10:05:16;;;;;;;1.40;0.50;;;22.10;66.30;;;;;;4992038;28;20096;-58
2023/09/22 10:07:43;;;;;;;1.27;0.77;;;22.10;66.30;;;;;;4997311;28;20664;-57
2023/09/22 10:10:11;;;;;;;0.75;0.45;;;22.10;66.50;;;;;;4996186;28;20080;-52
2023/09/22 10:12:37;;;;;;;1.38;0.70;;;22.10;66.20;;;;;;4997224;28;20029;-56
2023/09/22 10:15:04;;;;;;;1.10;0.50;;;22.10;66.40;;;;;;4997515;28;20042;-56
2023/09/22 10:17:31;;;;;;;1.38;0.52;;;22.00;66.40;;;;;;4998281;28;20492;-51
2023/09/22 10:19:59;;;;;;;1.23;0.60;;;22.00;66.30;;;;;;4997611;28;20030;-56
2023/09/22 10:22:25;;;;;;;1.80;0.77;;;22.10;66.40;;;;;;4996611;28;20042;-56
2023/09/22 10:25:12;;;;;;;0.98;0.57;;;22.10;66.50;;;;;;4980224;28;20106;-59
2023/09/22 10:27:54;;;;;;;1.58;0.70;;;22.10;66.30;;;;;;4995520;28;20040;-54
2023/09/22 10:30:21;;;;;;;2.08;0.50;;;22.10;66.30;;;;;;4996996;28;20691;-54
2023/09/22 10:32:46;;;;;;;3.25;0.73;;;22.00;66.50;;;;;;4995121;28;20038;-56
2023/09/22 10:35:15;;;;;;;1.70;0.60;;;22.10;66.50;;;;;;4995558;28;20034;-54
2023/09/22 10:38:01;;;;;;;0.93;0.80;;;22.00;66.40;;;;;;4998022;28;20264;-52
2023/09/22 10:40:26;;;;;;;;;;;22.00;66.40;;;;;;4994330;28;20034;-55
2023/09/22 10:42:52;;;;;;;3.42;0.50;;;22.10;67.10;;;;;;4995628;28;19914;-51
2023/09/22 10:45:21;;;;;;;1.27;0.70;;;22.00;66.40;;;;;;4999798;28;20531;-53
2023/09/22 10:47:49;;;;;;;2.17;0.50;;;22.00;66.30;;;;;;4997907;28;20042;-49
2023/09/22 10:50:21;;;;;;;1.80;0.82;;;22.10;67.00;;;;;;4998770;28;20030;-56
2023/09/22 10:52:54;;;;;;;2.13;0.50;;;22.10;66.30;;;;;;4996650;28;20119;-59
2023/09/22 10:55:36;;;;;;;2.25;1.08;;;22.10;66.50;;;;;;4993569;28;20041;-52
2023/09/22 10:58:06;;;;;;;2.50;0.77;;;22.10;66.60;;;;;;4993261;28;20053;-57
2023/09/22 11:00:35;;;;;;;1.10;0.50;;;22.10;66.40;;;;;;4998573;28;20046;-53
2023/09/22 11:03:08;;;;;;;1.80;0.75;;;22.00;66.20;;;;;;4993959;28;20038;-50
2023/09/22 11:05:35;;;;;;;1.35;0.65;;;22.10;66.50;;;;;;4996790;28;20053;-54
2023/09/22 11:08:04;;;;;;;1.13;0.73;;;22.10;66.40;;;;;;4995228;28;20121;-50
2023/09/22 11:10:31;;;;;;;1.42;0.60;;;22.00;66.40;;;;;;4997447;28;20083;-49
2023/09/22 11:12:58;;;;;;;1.85;0.60;;;22.00;66.50;;;;;;4997811;28;20044;-55
2023/09/22 11:15:24;;;;;;;1.35;0.70;;;22.00;66.50;;;;;;4999397;28;20133;-58
2023/09/22 11:17:49;;;;;;;1.75;0.50;;;22.00;66.50;;;;;;4997174;28;20165;-49
2023/09/22 11:20:27;;;;;;;1.00;0.73;;;22.00;66.50;;;;;;4998206;28;20069;-49
2023/09/22 11:22:53;;;;;;;1.27;0.63;;;22.00;66.50;;;;;;4994623;28;20420;-52
2023/09/22 11:25:21;;;;;;;0.90;0.60;;;22.00;66.60;;;;;;4992000;28;20056;-53
2023/09/22 11:27:50;;;;;;;1.70;0.70;;;22.00;66.60;;;;;;4993995;28;20026;-52
2023/09/22 11:30:19;;;;;;;3.80;0.60;;;22.00;66.60;;;;;;4993201;28;20036;-58
2023/09/22 11:32:47;;;;;;;1.83;0.60;;;22.00;66.50;;;;;;4995063;28;20037;-54
2023/09/22 11:35:41;;;;;;;1.05;0.68;;;22.00;66.50;;;;;;4993253;28;20030;-57
2023/09/22 11:38:28;;;;;;;1.42;0.68;;;22.00;66.50;;;;;;4975968;28;20034;-51
2023/09/22 11:41:10;;;;;;;2.25;0.50;;;22.00;66.60;;;;;;4996313;28;20034;-52
2023/09/22 11:43:39;;;;;;;2.30;0.55;;;22.00;66.60;;;;;;4997276;28;20380;-56
2023/09/22 11:46:14;;;;;;;0.98;0.73;;;22.00;66.20;;;;;;4998116;28;20104;-54
2023/09/22 11:48:54;;;;;;;0.98;0.50;;;22.00;66.60;;;;;;4994665;28;20037;-56
2023/09/22 11:51:20;;;;;;;1.10;0.52;;;22.00;66.70;;;;;;4978838;28;20085;-54
2023/09/22 11:53:47;;;;;;;2.40;0.70;;;22.00;66.50;;;;;;4993856;28;20022;-53
2023/09/22 11:56:12;;;;;;;2.45;0.70;;;22.00;66.70;;;;;;4993357;28;20037;-60
2023/09/22 11:58:38;;;;;;;1.45;0.65;;;22.00;66.60;;;;;;4995951;28;20030;-53
2023/09/22 12:01:05;;;;;;;1.98;0.52;;;22.00;66.60;;;;;;4992151;28;20042;-53
2023/09/22 12:03:33;;;;;;;1.15;0.70;;;22.00;66.70;;;;;;4977674;28;20118;-52
2023/09/22 12:06:00;;;;;;;1.83;0.73;;;22.00;66.50;;;;;;4995511;28;20095;-59
2023/09/22 12:08:25;;;;;;;1.35;0.75;;;22.00;66.60;;;;;;4997856;28;20033;-59
2023/09/22 12:10:51;;;;;;;1.77;0.63;;;22.00;66.60;;;;;;4997503;28;20049;-54
2023/09/22 12:13:17;;;;;;;1.60;0.73;;;22.00;66.70;;;;;;4996624;28;20033;-52
2023/09/22 12:15:42;;;;;;;1.48;0.60;;;22.00;66.60;;;;;;4998633;28;20033;-53
2023/09/22 12:18:08;;;;;;;2.92;0.75;;;22.00;66.60;;;;;;4997652;28;20037;-56
2023/09/22 12:20:35;;;;;;;1.05;0.60;;;22.00;66.70;;;;;;4994202;28;20079;-56
2023/09/22 12:23:01;;;;;;;1.67;0.77;;;22.00;66.70;;;;;;4995843;28;20041;-51
2023/09/22 12:25:26;;;;;;;1.73;0.82;;;22.00;66.80;;;;;;4981885;28;20038;-52
2023/09/22 12:27:52;;;;;;;3.90;0.77;;;22.00;66.80;;;;;;4992440;28;20084;-57
2023/09/22 12:30:18;;;;;;;3.83;0.88;;;22.00;66.80;;;;;;4995316;28;20093;-60
2023/09/22 12:32:43;;;;;;;4.38;0.93;;;22.00;67.00;;;;;;5000039;28;20399;-58
2023/09/22 12:35:09;;;;;;;3.97;1.70;;;22.00;67.20;;;;;;4997653;28;20045;-53
2023/09/22 12:37:35;;;;;;;5.00;1.08;;;22.00;67.50;;;;;;5000123;28;20075;-56
2023/09/22 12:40:03;;;;;;;2.65;0.68;;;22.00;67.40;;;;;;4995638;28;20034;-54
2023/09/22 12:42:28;;;;;;;2.60;0.77;;;22.00;67.30;;;;;;4999190;28;20041;-54
2023/09/22 12:44:54;;;;;;;2.63;0.95;;;22.00;67.50;;;;;;4997956;28;20034;-56
2023/09/22 12:47:20;;;;;;;2.65;0.95;;;22.00;67.50;;;;;;4983889;28;20060;-57
2023/09/22 12:49:45;;;;;;;2.75;0.82;;;22.00;67.60;;;;;;4999178;28;20037;-53
2023/09/22 12:52:11;;;;;;;1.00;0.82;;;22.00;67.60;;;;;;4998479;28;20041;-57